Tiempo atmosférico en la estación meteorológica de Viso Del Marqués, Ciudad Real (778 m.)



Fecha
DESCASC
Temp. máxima en grados centígrados (hora)
DESCASC
Temp. mínima en grados centígrados (hora)
DESCASC
Temp. media en grados centígrados
DESCASC
Racha de viento máxima en m/sg (hora)
DESCASC
Velocidad máxima media en intervalos de 10 minutos(hora)
DESCASC
Precipitaciones diarias en mm
DESCASC
Precipitaciones de 00:00 a 06:00 en mm
DESCASC
Precipitaciones de 06:00 a 12:00 en mm
DESCASC
Precipitaciones de 12:00 a 18:00 en mm
DESCASC
Precipitaciones de 18:00 a 24:00 en mm
DESCASC
21-03-2019 13.9 (16:10) 1.3 (07:20) 7.6 11.11 (13:10) 6.11 (10:50) 0 0 0 0 0
20-03-2019 15 (16:40) -0.9 (07:20) 7.1 6.67 (15:00) 4.17 (18:00) 0 0 0 0 0
19-03-2019 13.8 (15:10) 0.5 (06:10) 7.2 14.17 (15:20) 8.06 (16:50) 0 0 0 0 0
18-03-2019 15.9 (15:10) 2.6 (08:20) 9.2 7.78 (15:10) 5 (15:20) 0 0 0 0 0
17-03-2019 20.3 (13:20) 6 (00:00) 13.1 11.11 (13:50) 6.39 (13:40) 0 0 0 0 0
16-03-2019 24.6 (15:40) 6.5 (00:00) 15.6 7.22 (14:00) 5.28 (18:30) 0 0 0 0 0
15-03-2019 21.9 (15:50) 1.6 (00:00) 11.7 7.5 (16:20) 3.61 (17:00) 0 0 0 0 0
14-03-2019 16.4 (16:30) 0.8 (00:00) 8.6 6.67 (11:40) 3.61 (11:10) 0 0 0 0 0
13-03-2019 15.7 (15:50) 3.7 (00:00) 9.7 10.28 (16:10) 5 (11:40) 0 0 0 0 0
12-03-2019 21.9 (15:50) 5.8 (00:00) 13.8 9.17 (15:20) 5.83 (13:10) 0 0 0 0 0
11-03-2019 20.9 (15:50) 6.8 (00:00) 13.8 6.39 (12:40) 3.33 (12:20) 0 0 0 0 0
10-03-2019 20.7 (14:20) 5.1 (00:00) 12.9 5.83 (16:10) 3.61 (23:20) 0 0 0 0 0
09-03-2019 17.9 (16:30) 3 (00:00) 10.4 5.56 (14:40) 2.5 (13:50) 0 0 0 0 0
08-03-2019 14.4 (16:40) 3.5 (00:00) 8.9 7.5 (18:20) 3.33 (18:10) 0 0 0 0 0
07-03-2019 12.3 (15:20) 1.2 (00:00) 6.8 10 (14:00) 6.11 (16:20) 0 0 0 0 0
06-03-2019 12.4 (11:00) 4.7 (00:00) 8.5 23.06 (15:00) 16.67 (15:30) 8.6 0 0 8.6 0
05-03-2019 17 (15:50) 8.3 (00:00) 12.7 10.28 (15:40) 6.67 (14:50) 0 0 0 0 0
04-03-2019 17.8 (13:00) 4.7 (00:00) 11.2 10.28 (12:00) 6.67 (11:30) 0 0 0 0 0
03-03-2019 21.5 (15:30) 3.5 (00:00) 12.5 6.67 (11:10) 4.72 (17:00) 0 0 0 0 0
02-03-2019 18.6 (17:30) 5.1 (00:00) 11.9 6.39 (14:40) 3.33 (15:00) 0 0 0 0 0
01-03-2019 19 (13:20) 3.7 (00:00) 11.4 5.83 (16:40) 4.17 (16:40) 0 0 0 0 0
28-02-2019 20.6 (15:20) 4 (00:00) 12.3 4.17 (15:30) 2.22 (15:50) 0 0 0 0 0
27-02-2019 20.8 (16:20) 2.1 (00:00) 11.4 4.72 (16:40) 3.61 (00:40) 0 0 0 0 0
26-02-2019 20.2 (16:30) 2.2 (00:00) 11.2 9.17 (12:30) 5.56 (12:30) 0 0 0 0 0
25-02-2019 20.3 (15:30) 3 (00:00) 11.6 4.17 (13:00) 2.22 (12:20) 0 0 0 0 0
24-02-2019 19.4 (15:10) 1 (00:00) 10.2 4.44 (15:30) 3.33 (22:20) 0 0 0 0 0
23-02-2019 18.7 (16:40) 2.5 (00:00) 10.6 5.28 (14:10) 2.5 (12:00) 0 0 0 0 0
22-02-2019 19.6 (16:50) 1.9 (00:00) 10.8 4.17 (16:10) 2.78 (18:50) 0 0 0 0 0
21-02-2019 17.9 (15:50) 1.2 (00:00) 9.5 5.28 (15:50) 2.78 (17:50) 0 0 0 0 0
20-02-2019 15.7 (14:20) 1.6 (00:00) 8.6 5.28 (14:50) 2.78 (17:10) 0 0 0 0 0

Gráficas

Temp. máximas Temp. mínimas Temp. medias Precipitaciones Rachas de viento máximas Velocidades máximas media en intervalos de 10 minutos

Datos horarios

Fecha y hora oficial Temperatura (ºC) Velocidad del viento (km/h) Dirección del viento Racha (km/h) Dirección de racha Precipitación (mm) Presión (hPa) Tendencia (hPa) Humedad (%)
2019-03-21 23:00:00 6.7 15 Sudeste 22 Este 0 932.2 1.6 32
2019-03-21 22:00:00 7.1 12 Este 18 Este 0 932 2.1 30
2019-03-21 21:00:00 8.4 13 Este 17 Este 0 931.4 1.7 28
2019-03-21 20:00:00 9.5 12 Este 19 Este 0 930.6 0.6 25
2019-03-21 19:00:00 11.8 6 Este 20 Sudeste 0 929.9 0 23
2019-03-21 18:00:00 13 9 Nordeste 26 Este 0 929.7 -0.8 22
2019-03-21 17:00:00 13.4 13 Nordeste 32 Nordeste 0 930 -0.7 22
2019-03-21 16:00:00 13.2 17 Nordeste 33 Nordeste 0 929.9 -2 22
2019-03-21 15:00:00 13.5 15 Nordeste 36 Este 0 930.5 -2 22
2019-03-21 14:00:00 12.8 12 Nordeste 40 Este 0 930.7 -1.8 23
2019-03-21 13:00:00 11.7 15 Nordeste 36 Nordeste 0 931.9 -1.2 23
2019-03-21 12:00:00 11.3 16 Nordeste 39 Este 0 932.5 -0.7 24
2019-03-21 11:00:00 9.8 20 Nordeste 36 Este 0 932.5 -0.1 27
2019-03-21 10:00:00 8.3 16 Este 28 Este 0 933.1 0.8 32
2019-03-21 09:00:00 6.5 3 Este 10 Sudeste 0 933.2 1.3 35
2019-03-21 08:00:00 2.7 3 Nordeste 11 Nordeste 0 932.6 1.3 41
2019-03-21 07:00:00 1.8 6 Nordeste 13 Este 0 932.3 0.5 42
2019-03-21 06:00:00 2.4 5 Este 12 Este 0 931.9 0.1 41
2019-03-21 05:00:00 3.6 7 Este 13 Sudeste 0 931.3 -0.7 41
2019-03-21 04:00:00 3.3 12 Sudeste 16 Sudeste 0 931.8 -0.6 45
2019-03-21 03:00:00 3.9 13 Sudeste 22 Sudeste 0 931.8 -0.4 46
2019-03-21 02:00:00 5.1 16 Sudeste 24 Sudeste 0 932 -0.3 43
2019-03-21 01:00:00 6.6 14 Sudeste 23 Este 0 932.4 0.8 38
2019-03-21 00:00:00 6.2 13 Sudeste 18 Este 0 932.2 1.1 38
2019-03-20 23:00:00 6.5 5 Nordeste 10 Este 0 932.3 1.7 36
2019-03-20 22:00:00 7.2 6 Sudeste 14 Sudeste 0 931.6 1.5 34
2019-03-20 21:00:00 8.6 6 Nordeste 21 Nordeste 0 931.1 1.6 30
2019-03-20 20:00:00 9.9 7 Nordeste 14 Nordeste 0 930.6 0.9 26
2019-03-20 19:00:00 12.1 10 Nordeste 19 Nordeste 0 930.1 0.2 24
2019-03-20 18:00:00 13.2 15 Nordeste 24 Nordeste 0 929.5 -1 22
2019-03-20 17:00:00 13.5 9 Norte 23 Nordeste 0 929.7 -1.3 23
2019-03-20 16:00:00 13.1 9 Norte 20 Nordeste 0 929.9 -1.6 24
2019-03-20 15:00:00 12.7 13 Este 24 Este 0 930.5 -1.2 25
2019-03-20 14:00:00 13.3 10 Norte 22 Norte 0 931 -1.5 28
2019-03-20 13:00:00 11.6 10 Nordeste 22 Nordeste 0 931.5 -0.9 32
2019-03-20 12:00:00 10.7 5 Nordeste 13 Este 0 931.7 -0.7 35
2019-03-20 11:00:00 8.4 0 Calma 12 Norte 0 932.5 0.1 40
2019-03-20 10:00:00 5.8 3 Noroeste 11 Norte 0 932.4 1.1 45
2019-03-20 09:00:00 3.1 4 Noroeste 10 Noroeste 0 932.4 0.9 51
2019-03-20 08:00:00 0.4 2 Sudoeste 8 Noroeste 0 932.4 1.4 59
2019-03-20 07:00:00 -0.6 4 Oeste 9 Noroeste 0 931.3 0.1 58
2019-03-20 06:00:00 0.9 6 Noroeste 11 Oeste 0 931.5 -0.3 55
2019-03-20 05:00:00 2.2 9 Noroeste 13 Oeste 0 931 -0.3 50
2019-03-20 04:00:00 3.8 8 Norte 17 Norte 0 931.2 -0.2 44
2019-03-20 03:00:00 3 0 Calma 18 Norte 0 931.8 0.2 41
2019-03-20 02:00:00 2.9 0 Calma 15 Norte 0 931.3 0.2 38
2019-03-20 01:00:00 5.2 0 Calma 18 Norte 0 931.4 0.9 35
2019-03-20 00:00:00 6.6 6 Norte 13 Nordeste 0 931.6 1.6 32
2019-03-19 23:00:00 7.4 6 Norte 13 Norte 0 931.1 1.4 31
2019-03-19 22:00:00 7.9 4 Norte 12 Norte 0 930.5 1.2 29
2019-03-19 21:00:00 9.1 8 Norte 18 Norte 0 930 1.3 28
2019-03-19 20:00:00 10.2 12 Norte 32 Norte 0 929.7 1.4 26
2019-03-19 19:00:00 11.7 22 Norte 38 Nordeste 0 929.3 0.8 25
2019-03-19 18:00:00 12.8 22 Norte 43 Norte 0 928.7 0.2 23
2019-03-19 17:00:00 12.8 25 Norte 44 Norte 0 928.3 -0.8 25
2019-03-19 16:00:00 13.2 27 Norte 51 Norte 0 928.5 -1 25
2019-03-19 15:00:00 13.1 26 Norte 43 Nordeste 0 928.5 -1.5 26
2019-03-19 14:00:00 12.2 25 Norte 47 Norte 0 929.1 -1.3 27
2019-03-19 13:00:00 11.6 25 Norte 45 Norte 0 929.5 -1 29
2019-03-19 12:00:00 10.7 21 Norte 38 Norte 0 930 -0.7 32
2019-03-19 11:00:00 8.5 18 Norte 27 Norte 0 930.4 0.1 34
2019-03-19 10:00:00 6.9 13 Norte 23 Norte 0 930.5 0.2 37
2019-03-19 09:00:00 4.1 5 Oeste 10 Noroeste 0 930.7 0.9 41
2019-03-19 08:00:00 2.2 6 Noroeste 9 Noroeste 0 930.3 0.6 43
2019-03-19 07:00:00 1.6 5 Oeste 9 Sudoeste 0 930.3 0.9 42
2019-03-19 06:00:00 1.5 5 Oeste 10 Oeste 0 929.8 -0.1 40
2019-03-19 05:00:00 1.4 5 Sudoeste 12 Oeste 0 929.7 -0.1 40
2019-03-19 04:00:00 2.5 6 Sudoeste 11 Oeste 0 929.4 -0.6 38
2019-03-19 03:00:00 4.6 7 Noroeste 10 Oeste 0 929.9 -0.3 31
2019-03-19 02:00:00 4.4 7 Sudoeste 8 Sudoeste 0 929.8 -0.4 32
2019-03-19 01:00:00 4.2 4 Oeste 5 Oeste 0 930 0.1 28
2019-03-19 00:00:00 7.1 0 Calma 5 Norte 0 930.2 0.7 25
2019-03-18 23:00:00 7.5 0 Calma 6 Norte 0 930.2 1.2 25
2019-03-18 22:00:00 9.4 3 Norte 16 Norte 0 929.9 1 22
2019-03-18 21:00:00 10.6 10 Norte 16 Norte 0 929.5 1.4 21
2019-03-18 20:00:00 11.1 10 Norte 22 Norte 0 929 1.4 19
2019-03-18 19:00:00 13.3 14 Norte 27 Norte 0 928.9 0.9 19
2019-03-18 18:00:00 14.8 11 Noroeste 24 Norte 0 928.1 0.1 23
2019-03-18 17:00:00 14.8 14 Noroeste 27 Noroeste 0 927.6 -1.1 25
2019-03-18 16:00:00 15.3 10 Norte 28 Norte 0 928 -1.1 25
2019-03-18 15:00:00 15.5 12 Norte 26 Norte 0 928 -1.5 26
2019-03-18 14:00:00 14.4 12 Norte 27 Norte 0 928.7 -0.9 28
2019-03-18 13:00:00 13.4 12 Norte 26 Norte 0 929.1 -0.5 33
2019-03-18 12:00:00 11.5 14 Norte 25 Norte 0 929.5 0.4 37
2019-03-18 11:00:00 10 11 Norte 22 Norte 0 929.6 1.1 42
2019-03-18 10:00:00 8.5 14 Norte 23 Norte 0 929.6 2.3 48
2019-03-18 09:00:00 6.2 4 Noroeste 13 Norte 0 929.1 2.4 54
2019-03-18 08:00:00 3.6 7 Noroeste 12 Noroeste 0 928.5 1.7 63
2019-03-18 07:00:00 3.9 5 Oeste 10 Noroeste 0 927.3 1.1 57
2019-03-18 06:00:00 4.7 3 Oeste 6 Norte 0 926.7 0.2 55
2019-03-18 05:00:00 4.6 2 Sudoeste 13 Norte 0 926.8 0.2 57
2019-03-18 04:00:00 6.8 6 Noroeste 13 Norte 0 926.2 -0.2 54
2019-03-18 03:00:00 5.4 3 Oeste 8 Noroeste 0 926.5 0 58
2019-03-18 02:00:00 6.2 4 Oeste 10 Oeste 0 926.6 0 54
2019-03-18 01:00:00 6.9 5 Oeste 11 Oeste 0 926.4 -0.1 52
2019-03-18 00:00:00 7.2 5 Sudoeste 10 Oeste 0 926.5 -0.2 50
2019-03-17 23:00:00 9.3 9 Oeste 17 Oeste 0 926.6 1.1 45
2019-03-17 22:00:00 8.7 7 Sudoeste 12 Oeste 0 926.5 1.3 43
2019-03-17 21:00:00 11.3 10 Oeste 15 Oeste 0 926.7 1.7 36
2019-03-17 20:00:00 13.1 8 Oeste 24 Oeste 0 925.5 0.5 29
2019-03-17 19:00:00 16.1 14 Oeste 24 Oeste 0 925.2 0.6 21
2019-03-17 18:00:00 17.5 13 Oeste 30 Noroeste 0 925 -0.6 19
2019-03-17 17:00:00 19.9 16 Oeste 35 Oeste 0 925 -1.4 16
2019-03-17 16:00:00 19.9 17 Oeste 33 Oeste 0 924.6 -2.1 16
2019-03-17 15:00:00 19.5 19 Noroeste 37 Oeste 0 925.6 -1.6 16
2019-03-17 14:00:00 19.7 20 Oeste 40 Oeste 0 926.4 -0.9 16
2019-03-17 13:00:00 19.4 20 Oeste 37 Oeste 0 926.7 -0.6 19
2019-03-17 12:00:00 18.2 16 Oeste 33 Oeste 0 927.2 0.1 20
2019-03-17 11:00:00 17.3 20 Oeste 32 Oeste 0 927.3 0.7 27
2019-03-17 10:00:00 15.5 8 Oeste 15 Oeste 0 927.3 1.3 32
2019-03-17 09:00:00 11.5 0 Calma 4 Noroeste 0 927.1 1.5 36
2019-03-17 08:00:00 7.4 3 Noroeste 6 Noroeste 0 926.6 0.4 38
2019-03-17 07:00:00 8.5 3 Noroeste 5 Nordeste 0 926 -0.1 39
2019-03-17 06:00:00 6.8 2 Norte 9 Sudoeste 0 925.6 -0.7 34
2019-03-17 05:00:00 7.8 0 Calma 6 Sudoeste 0 926.2 -0.3 30
2019-03-17 04:00:00 9.5 3 Sur 6 Sur 0 926.1 -0.5 27
2019-03-17 03:00:00 9.2 4 Sur 8 Norte 0 926.3 -0.3 25
2019-03-17 02:00:00 10.8 3 Noroeste 19 Oeste 0 926.5 -0.3 22
2019-03-17 01:00:00 12.7 13 Oeste 22 Oeste 0 926.6 -0.3 21
2019-03-17 00:00:00 14 14 Oeste 22 Oeste 0 926.6 -0.4 20
2019-03-16 23:00:00 12.2 14 Oeste 20 Oeste 0 926.8 0.2 20
2019-03-16 22:00:00 13.8 14 Oeste 20 Oeste 0 926.9 0.8 19
2019-03-16 21:00:00 15.7 13 Oeste 21 Oeste 0 927 0.6 18
2019-03-16 20:00:00 16.3 15 Oeste 24 Sudoeste 0 926.6 0.4 17
2019-03-16 19:00:00 18.5 14 Sudoeste 24 Sudoeste 0 926.1 -0.7 16
2019-03-16 18:00:00 21.8 13 Sudoeste 23 Oeste 0 926.4 -0.5 13
2019-03-16 17:00:00 23.1 12 Oeste 26 Oeste 0 926.2 -1.9 13
2019-03-16 16:00:00 24.1 5 Sur 21 Oeste 0 926.8 -2.1 12
2019-03-16 15:00:00 23.9 5 Sudeste 25 Sudeste 0 926.9 -2.6 12
2019-03-16 14:00:00 23.8 14 Sur 26 Sudeste 0 928.1 -1.9 12
2019-03-16 13:00:00 23.6 10 Sur 21 Sur 0 928.9 -1.4 12
2019-03-16 12:00:00 21.7 6 Nordeste 13 Este 0 929.5 -1 16
2019-03-16 11:00:00 21.5 5 Este 15 Este 0 930 -0.2 18
2019-03-16 10:00:00 16.5 5 Nordeste 9 Este 0 930.3 -0.1 28
2019-03-16 09:00:00 10.3 0 Calma 6 Nordeste 0 930.5 0.4 33
2019-03-16 08:00:00 9.7 2 Sudeste 13 Sudeste 0 930.2 -0.7 32
2019-03-16 07:00:00 6.5 5 Este 8 Nordeste 0 930.4 0.1 36
2019-03-16 06:00:00 7.2 5 Nordeste 10 Nordeste 0 930.1 -1 35
2019-03-16 05:00:00 7.5 8 Este 10 Este 0 930.9 -0.5 35
2019-03-16 04:00:00 8 4 Este 8 Nordeste 0 930.3 -1.5 33
2019-03-16 03:00:00 8.9 4 Este 12 Este 0 931.1 -1.1 29
2019-03-16 02:00:00 11.1 9 Nordeste 10 Nordeste 0 931.4 -0.9 25
2019-03-16 01:00:00 12.2 5 Nordeste 6 Nordeste 0 931.8 -0.3 24
2019-03-16 00:00:00 12.2 0 Calma 5 Nordeste 0 932.2 0.8 24
2019-03-15 23:00:00 12.8 4 Sur 7 Sudoeste 0 932.3 0.8 23
2019-03-15 22:00:00 13.7 5 Sudoeste 6 Sudoeste 0 932.1 1.4 22
2019-03-15 21:00:00 15.4 4 Sudoeste 5 Sudoeste 0 931.4 0.9 20
2019-03-15 20:00:00 16.1 3 Sudoeste 11 Norte 0 931.5 0.7 18
2019-03-15 19:00:00 19.6 8 Norte 18 Norte 0 930.7 -0.6 15
2019-03-15 18:00:00 21.2 11 Nordeste 22 Nordeste 0 930.5 -0.9 14
2019-03-15 17:00:00 21.4 13 Norte 27 Nordeste 0 930.8 -1.3 14
2019-03-15 16:00:00 21.7 7 Norte 25 Nordeste 0 931.3 -1.7 15
2019-03-15 15:00:00 21.3 11 Norte 23 Norte 0 931.4 -2.2 15
2019-03-15 14:00:00 20.3 8 Norte 18 Norte 0 932.1 -1.8 17
2019-03-15 13:00:00 18.7 6 Norte 18 Norte 0 933 -1.3 17
2019-03-15 12:00:00 17.3 10 Nordeste 19 Nordeste 0 933.6 -0.4 19
2019-03-15 11:00:00 14.9 4 Nordeste 10 Nordeste 0 933.9 -0.2 23
2019-03-15 10:00:00 12.8 3 Nordeste 7 Nordeste 0 934.3 0.7 25
2019-03-15 09:00:00 10.9 0 Calma -- -- 0 934 0.6 33
2019-03-15 08:00:00 5.8 0 Calma -- -- 0 934.1 0.6 38
2019-03-15 07:00:00 4.5 0 Calma 3 Este 0 933.6 0.2 40
2019-03-15 06:00:00 4.5 0 Calma 3 Sudoeste 0 933.4 -0.6 38
2019-03-15 05:00:00 5.3 0 Calma 5 Oeste 0 933.5 -0.8 38
2019-03-15 04:00:00 5.7 3 Oeste 6 Sudoeste 0 933.4 -1.3 38
2019-03-15 03:00:00 3.2 5 Sudoeste 8 Sudoeste 0 934 -0.8 43
2019-03-15 02:00:00 6.2 4 Sudoeste 8 Sudoeste 0 934.3 -0.5 35
2019-03-15 01:00:00 6.3 3 Sur 6 Oeste 0 934.7 0.6 35
2019-03-15 00:00:00 7.9 0 Calma 3 Noroeste 0 934.8 0.5 30
2019-03-14 23:00:00 9 3 Oeste 7 Sudoeste 0 934.8 0.9 29
2019-03-14 22:00:00 9.4 5 Sudoeste 8 Sudoeste 0 934.1 0.4 28
2019-03-14 21:00:00 9.6 6 Sudoeste 8 Sudoeste 0 934.3 0.9 27
2019-03-14 20:00:00 10.5 4 Oeste 10 Noroeste 0 933.9 0.3 21
2019-03-14 19:00:00 14.7 4 Norte 14 Norte 0 933.7 -0.2 18
2019-03-14 18:00:00 15.8 5 Norte 16 Norte 0 933.4 -0.4 16
2019-03-14 17:00:00 16.1 10 Norte 19 Norte 0 933.6 -0.8 17
2019-03-14 16:00:00 15.9 10 Norte 17 Norte 0 933.9 -1.5 17
2019-03-14 15:00:00 15 10 Norte 21 Norte 0 933.8 -2.5 18
2019-03-14 14:00:00 13.9 9 Norte 17 Norte 0 934.4 -2 20
2019-03-14 13:00:00 12.4 8 Norte 20 Norte 0 935.4 -0.9 23
2019-03-14 12:00:00 10.8 7 Nordeste 24 Nordeste 0 936.3 0.1 27
2019-03-14 11:00:00 9.7 12 Nordeste 20 Norte 0 936.4 1.1 29
2019-03-14 10:00:00 7.5 5 Norte 10 Nordeste 0 936.3 1.2 33
2019-03-14 09:00:00 5.4 2 Noroeste 4 Norte 0 936.2 1.1 39
2019-03-14 08:00:00 2.4 3 Sudoeste 5 Sudoeste 0 935.3 0 44
2019-03-14 07:00:00 2.4 3 Oeste 4 Sudoeste 0 935.1 -0.1 42
2019-03-14 06:00:00 1.7 0 Calma 4 Norte 0 935.1 -0.2 40
2019-03-14 05:00:00 3.1 0 Calma 6 Este 0 935.3 -0.1 37
2019-03-14 04:00:00 3.7 3 Este 10 Este 0 935.2 -0.2 35
2019-03-14 03:00:00 4.4 6 Este 10 Este 0 935.3 0.1 33
2019-03-14 02:00:00 4.1 4 Este 12 Nordeste 0 935.4 0.5 32
2019-03-14 01:00:00 6.2 11 Nordeste 19 Nordeste 0 935.4 1 30
2019-03-14 00:00:00 6.6 5 Nordeste 16 Norte 0 935.2 1.1 29
2019-03-13 23:00:00 7.7 11 Norte 19 Norte 0 934.9 1.3 28
2019-03-13 22:00:00 8.5 7 Norte 16 Norte 0 934.4 1.9 25
2019-03-13 21:00:00 9.8 10 Norte 16 Norte 0 934.1 1.9 23
2019-03-13 20:00:00 11 9 Norte 19 Norte 0 933.6 1.4 25
2019-03-13 19:00:00 13 14 Norte 25 Norte 0 932.5 0.9 22
2019-03-13 18:00:00 14.4 12 Norte 26 Norte 0 932.2 0.4 22
2019-03-13 17:00:00 15.1 12 Norte 37 Norte 0 932.2 0.5 22
2019-03-13 16:00:00 15 12 Noroeste 28 Noroeste 0 931.6 -0.7 24
2019-03-13 15:00:00 14.8 11 Norte 27 Norte 0 931.8 -0.6 25
2019-03-13 14:00:00 14 15 Norte 28 Nordeste 0 931.7 -0.8 27
2019-03-13 13:00:00 13.5 13 Norte 27 Norte 0 932.3 0.4 32
2019-03-13 12:00:00 11.8 14 Norte 30 Norte 0 932.4 0.9 39
2019-03-13 11:00:00 12 12 Norte 24 Norte 0 932.5 1.4 42
2019-03-13 10:00:00 10 8 Oeste 14 Oeste 0 931.9 1.3 59
2019-03-13 09:00:00 6.8 10 Oeste 19 Oeste 0 931.5 1 74
2019-03-13 08:00:00 5.2 7 Oeste 15 Oeste 0 931.1 1.1 74
2019-03-13 07:00:00 5.8 5 Noroeste 21 Oeste 0 930.6 0.5 72
2019-03-13 06:00:00 6.6 15 Oeste 21 Oeste 0 930.5 -0.4 69
2019-03-13 05:00:00 7.3 12 Oeste 20 Oeste 0 930 -1.4 60
2019-03-13 04:00:00 8.3 10 Oeste 18 Oeste 0 930.1 -1.4 55
2019-03-13 03:00:00 9.5 10 Oeste 19 Oeste 0 930.9 -0.9 48
2019-03-13 02:00:00 10.8 7 Oeste 12 Oeste 0 931.4 0.1 48
2019-03-13 01:00:00 11.2 9 Oeste 17 Oeste 0 931.5 -0.7 52
2019-03-13 00:00:00 11.5 14 Oeste 23 Oeste 0 931.8 -0.1 49
2019-03-12 23:00:00 11.1 14 Sudoeste 20 Oeste 0 931.3 -0.1 52
2019-03-12 22:00:00 13.3 12 Oeste 21 Oeste 0 932.2 0.8 46
2019-03-12 21:00:00 14.4 6 Oeste 18 Oeste 0 931.9 0.9 46
2019-03-12 20:00:00 14.8 10 Sudoeste 18 Sudoeste 0 931.4 0 40
2019-03-12 19:00:00 17.8 11 Sudoeste 28 Sudoeste 0 931.4 -0.3 31
2019-03-12 18:00:00 19.8 18 Sudoeste 31 Sudoeste 0 931 -1.3 29
2019-03-12 17:00:00 21 18 Sudoeste 32 Oeste 0 931.4 -2.2 26
2019-03-12 16:00:00 21.2 19 Sudoeste 33 Sudoeste 0 931.7 -2 25
2019-03-12 15:00:00 21.3 15 Sudoeste 32 Sudoeste 0 932.3 -1.9 26
2019-03-12 14:00:00 21.2 19 Sudoeste 32 Sudoeste 0 933.6 -0.9 28
2019-03-12 13:00:00 20.6 14 Sudoeste 31 Oeste 0 933.7 -1.2 29
2019-03-12 12:00:00 20.2 15 Sudoeste 28 Oeste 0 934.2 -0.1 29
2019-03-12 11:00:00 18.8 3 Sudoeste 9 Sudoeste 0 934.5 -0.2 33
2019-03-12 10:00:00 14.7 0 Calma 7 Noroeste 0 934.9 0 39
2019-03-12 09:00:00 8.7 6 Norte 9 Noroeste 0 934.3 -0.9 56
2019-03-12 08:00:00 6 4 Nordeste 8 Este 0 934.7 -0.1 61
2019-03-12 07:00:00 6.6 4 Nordeste 8 Nordeste 0 934.9 -0.4 58
2019-03-12 06:00:00 6.5 6 Nordeste 8 Nordeste 0 935.2 -0.1 61
2019-03-12 05:00:00 6.5 6 Nordeste 9 Este 0 934.8 -0.8 60
2019-03-12 04:00:00 6.9 5 Este 10 Este 0 935.3 -0.2 58
2019-03-12 03:00:00 7.9 7 Nordeste 9 Este 0 935.3 -0.4 52
2019-03-12 02:00:00 9.8 5 Nordeste 6 Nordeste 0 935.6 -0.6 46
2019-03-12 01:00:00 9.2 3 Sur 8 Sur 0 935.5 -0.2 47
2019-03-12 00:00:00 11.1 4 Sudeste 7 Sur 0 935.7 0.3 43
2019-03-11 23:00:00 10.8 4 Sur 5 Sur 0 936.2 1.3 44
2019-03-11 22:00:00 11.2 3 Sudoeste 6 Nordeste 0 935.7 1.3 42
2019-03-11 21:00:00 14.4 4 Nordeste 12 Norte 0 935.4 1 34
2019-03-11 20:00:00 15.7 9 Norte 18 Norte 0 934.9 1 31
2019-03-11 19:00:00 17.9 9 Norte 17 Norte 0 934.4 0.4 26
2019-03-11 18:00:00 19.5 8 Norte 20 Norte 0 934.4 0.4 25
2019-03-11 17:00:00 19.7 6 Norte 18 Norte 0 933.9 -0.8 24
2019-03-11 16:00:00 19.8 8 Norte 19 Norte 0 934 -1 25
2019-03-11 15:00:00 19.5 10 Norte 19 Norte 0 934 -1.6 25
2019-03-11 14:00:00 18.8 9 Norte 20 Nordeste 0 934.7 -0.9 28
2019-03-11 13:00:00 18.2 10 Norte 23 Nordeste 0 935 -0.5 29
2019-03-11 12:00:00 18.1 12 Norte 21 Norte 0 935.6 0.2 31
2019-03-11 11:00:00 15.8 7 Norte 13 Norte 0 935.6 1 35
2019-03-11 10:00:00 14.6 6 Nordeste 10 Nordeste 0 935.5 1 40
2019-03-11 09:00:00 11.7 0 Calma 6 Sudoeste 0 935.4 1.1 65
2019-03-11 08:00:00 7.9 5 Sudoeste 7 Oeste 0 934.6 0.6 74
2019-03-11 07:00:00 8.1 4 Oeste 7 Noroeste 0 934.5 0.5 71
2019-03-11 06:00:00 8.4 3 Sudoeste 8 Oeste 0 934.3 0 72
2019-03-11 05:00:00 8.3 4 Oeste 8 Noroeste 0 934 -0.4 69
2019-03-11 04:00:00 9 3 Oeste 7 Oeste 0 934 -0.6 66
2019-03-11 03:00:00 9.4 2 Oeste 8 Oeste 0 934.3 -1.4 64
2019-03-11 02:00:00 9.6 3 Sudoeste 9 Noroeste 0 934.4 -0.7 62
2019-03-11 01:00:00 11 7 Oeste 12 Oeste 0 934.6 -0.6 59
2019-03-11 00:00:00 10.7 8 Oeste 16 Oeste 0 935.7 1.2 53
2019-03-10 23:00:00 10.4 6 Sudoeste 14 Oeste 0 935.1 0.6 49
2019-03-10 22:00:00 11.7 4 Oeste 10 Sudoeste 0 935.2 0.7 44
2019-03-10 21:00:00 14.2 3 Oeste 6 Sudoeste 0 934.5 0.1 35
2019-03-10 20:00:00 14.8 4 Sudoeste 8 Oeste 0 934.5 0.2 34
2019-03-10 19:00:00 18.8 4 Noroeste 13 Norte 0 934.5 -0.2 27
2019-03-10 18:00:00 19.7 8 Norte 21 Norte 0 934.4 -1 25
2019-03-10 17:00:00 19.9 11 Noroeste 21 Norte 0 934.3 -1.6 25
2019-03-10 16:00:00 20.2 8 Norte 19 Oeste 0 934.7 -1.9 25
2019-03-10 15:00:00 20.2 7 Noroeste 16 Oeste 0 935.4 -1.5 26
2019-03-10 14:00:00 19 6 Norte 17 Norte 0 935.9 -1.2 27
2019-03-10 13:00:00 19 4 Oeste 13 Oeste 0 936.6 -0.9 28
2019-03-10 12:00:00 17.5 0 Calma 10 Noroeste 0 936.9 -0.5 30
2019-03-10 11:00:00 15.4 3 Norte 6 Nordeste 0 937.1 -0.3 31
2019-03-10 10:00:00 13.3 3 Nordeste 4 Nordeste 0 937.5 0.5 37
2019-03-10 09:00:00 9.3 0 Calma 4 Nordeste 0 937.4 0.7 46
2019-03-10 08:00:00 6.5 0 Calma 4 Norte 0 937.4 0.4 49
2019-03-10 07:00:00 5.9 0 Calma 6 Sudoeste 0 937 -0.1 50
2019-03-10 06:00:00 6.5 4 Oeste 5 Oeste 0 936.7 -0.8 49
2019-03-10 05:00:00 5.8 4 Sudoeste 4 Sudoeste 0 937 -0.3 50
2019-03-10 04:00:00 6.7 0 Calma 3 Sudoeste 0 937.1 -0.1 47
2019-03-10 03:00:00 6.4 5 Sudoeste 6 Sudoeste 0 937.5 -0.2 50
2019-03-10 02:00:00 7 4 Nordeste 8 Nordeste 0 937.3 -0.3 47
2019-03-10 01:00:00 8.2 2 Nordeste 6 Sudoeste 0 937.2 -0.3 42
2019-03-10 00:00:00 8.6 4 Sudoeste 5 Sudoeste 0 937.7 0.1 41
2019-03-09 23:00:00 9.3 4 Sudoeste 6 Sudoeste 0 937.6 0.6 41
2019-03-09 22:00:00 9.4 3 Sudoeste 6 Oeste 0 937.5 1 41
2019-03-09 21:00:00 10.1 3 Sudoeste 8 Oeste 0 937.6 1.5 38
2019-03-09 20:00:00 13 7 Norte 11 Norte 0 937 0.6 29
2019-03-09 19:00:00 15.5 6 Norte 13 Norte 0 936.5 0.2 23
2019-03-09 18:00:00 16.8 6 Norte 13 Norte 0 936.1 -0.7 22
2019-03-09 17:00:00 16.9 5 Noroeste 13 Nordeste 0 936.4 -0.8 22
2019-03-09 16:00:00 16.6 4 Norte 17 Nordeste 0 936.3 -1.5 23
2019-03-09 15:00:00 16.4 6 Norte 20 Este 0 936.8 -1.1 25
2019-03-09 14:00:00 16.8 3 Sur 18 Norte 0 937.2 -0.9 26
2019-03-09 13:00:00 15.3 6 Norte 14 Norte 0 937.8 -0.3 29
2019-03-09 12:00:00 15.3 0 Calma 11 Nordeste 0 937.9 0.7 32
2019-03-09 11:00:00 12.8 3 Este 10 Este 0 938.1 1.5 39
2019-03-09 10:00:00 10.6 0 Calma -- -- 0 938.1 1.9 47
2019-03-09 09:00:00 6.7 0 Calma 5 Sudoeste 0 937.2 1.6 65
2019-03-09 08:00:00 4 0 Calma -- -- 0 936.6 1.4 68
2019-03-09 07:00:00 3.7 0 Calma 2 Noroeste 0 936.2 1.5 67
2019-03-09 06:00:00 3.9 0 Calma 4 Sudoeste 0 935.6 0.3 68
2019-03-09 05:00:00 3.2 3 Sudoeste 6 Oeste 0 935.2 0.1 70
2019-03-09 04:00:00 4.2 4 Oeste 6 Oeste 0 934.7 -0.3 64
2019-03-09 03:00:00 3.9 4 Sudoeste 5 Sudoeste 0 935.3 0.9 65
2019-03-09 02:00:00 5.7 0 Calma 5 Sudoeste 0 935.1 1.2 61
2019-03-09 01:00:00 5.2 4 Sudoeste 5 Sudoeste 0 935 1.9 64
2019-03-09 00:00:00 5.9 0 Calma 3 Sur 0 934.4 2 58
2019-03-08 23:00:00 7 0 Calma 5 Sudoeste 0 933.9 2.4 55
2019-03-08 22:00:00 7.6 3 Sudoeste 6 Sur 0 933.1 2.6 52
2019-03-08 21:00:00 8.4 3 Noroeste 8 Norte 0 932.4 2.9 48
2019-03-08 20:00:00 10 6 Norte 9 Norte 0 931.5 2.2 40
2019-03-08 19:00:00 11.5 6 Norte 27 Norte 0 930.5 1.3 36
2019-03-08 18:00:00 12 10 Norte 15 Norte 0 929.5 0.3 35
2019-03-08 17:00:00 12.3 10 Noroeste 19 Noroeste 0 929.3 -0.1 35
2019-03-08 16:00:00 13.4 5 Norte 14 Norte 0 929.2 -0.5 33
2019-03-08 15:00:00 12.2 2 Norte 12 Norte 0 929.2 0 35
2019-03-08 14:00:00 12.8 0 Calma 12 Noroeste 0 929.4 0 37
2019-03-08 13:00:00 11.3 3 Norte 16 Noroeste 0 929.7 0.9 43
2019-03-08 12:00:00 9.6 4 Norte 8 Norte 0 929.2 1.8 49
2019-03-08 11:00:00 8.6 4 Nordeste 10 Nordeste 0 929.4 2.8 52
2019-03-08 10:00:00 8.3 5 Nordeste 10 Nordeste 0 928.8 2.8 55
2019-03-08 09:00:00 6.8 0 Calma 4 Nordeste 0 927.4 1.9 67
2019-03-08 08:00:00 4 2 Este 10 Este 0 926.6 1.2 74
2019-03-08 07:00:00 3.9 0 Calma 5 Nordeste 0 926 0.4 73
2019-03-08 06:00:00 4.8 0 Calma 8 Oeste 0 925.5 -0.7 69
2019-03-08 05:00:00 5.9 3 Norte 9 Norte 0 925.4 0.3 66
2019-03-08 04:00:00 6.2 3 Nordeste 10 Oeste 0 925.6 -0.1 64
2019-03-08 03:00:00 6.5 8 Oeste 20 Sudoeste 0 926.2 0.6 61
2019-03-08 02:00:00 6.6 4 Sudoeste 13 Sur 0 925.1 -0.2 56
2019-03-08 01:00:00 6.7 4 Oeste 16 Oeste 0 925.7 0.7 58
2019-03-08 00:00:00 5.8 4 Noroeste 8 Oeste 0 925.6 0.6 58
2019-03-07 23:00:00 5.8 7 Sudoeste 15 Sudoeste 0 925.3 0.6 61
2019-03-07 22:00:00 5.2 9 Sur 16 Sur 0 925 1.5 61
2019-03-07 21:00:00 5.6 9 Sudoeste 16 Sudoeste 0 925 1.7 57
2019-03-07 20:00:00 6.1 11 Sudoeste 18 Sur 0 924.7 1.3 53
2019-03-07 19:00:00 8.7 13 Sudoeste 22 Sudoeste 0 923.5 0.1 38
2019-03-07 18:00:00 9 16 Sudoeste 22 Sudoeste 0 923.3 -0.4 33
2019-03-07 17:00:00 11.2 19 Sudoeste 30 Sudoeste 0 923.4 -1.4 30
2019-03-07 16:00:00 11.3 13 Sudoeste 23 Sudoeste 0 923.4 -2.2 29
2019-03-07 15:00:00 12.1 12 Oeste 28 Oeste 0 923.7 -2.7 28
2019-03-07 14:00:00 10.7 12 Sudoeste 36 Sudoeste 0 924.8 -1.1 30
2019-03-07 13:00:00 10.2 11 Oeste 25 Sudoeste 0 925.6 -0.5 36
2019-03-07 12:00:00 8.4 6 Sudoeste 19 Sudoeste 0 926.4 1 40
2019-03-07 11:00:00 6.5 4 Oeste 15 Sudoeste 0 925.9 1.2 48
2019-03-07 10:00:00 5.5 8 Oeste 17 Oeste 0 926.1 1.9 62
2019-03-07 09:00:00 3.9 6 Oeste 10 Oeste 0 925.4 1.4 70
2019-03-07 08:00:00 3 9 Oeste 14 Oeste 0 924.7 0.9 71
2019-03-07 07:00:00 2.5 10 Oeste 17 Oeste 0 924.2 0.6 71
2019-03-07 06:00:00 3.3 8 Oeste 13 Oeste 0 924 0.5 70
2019-03-07 05:00:00 2.2 10 Oeste 18 Sudoeste 0 923.8 0.3 72
2019-03-07 04:00:00 1.9 16 Sudoeste 25 Sudoeste 0 923.6 0.1 72
2019-03-07 03:00:00 3.6 12 Oeste 23 Oeste 0 923.5 0.3 66
2019-03-07 02:00:00 4.7 10 Oeste 24 Oeste 0 923.5 1 64
2019-03-07 01:00:00 5.6 4 Norte 26 Sudoeste 0 923.5 1.4 63
2019-03-07 00:00:00 5.8 17 Sudoeste 27 Sudoeste 0 923.2 1.5 64
2019-03-06 23:00:00 5.8 22 Sudoeste 31 Sudoeste 0 922.5 1.6 62
2019-03-06 22:00:00 5.5 15 Sudoeste 24 Sudoeste 0 922.1 2.8 65
2019-03-06 21:00:00 5.1 17 Sudoeste 22 Sudoeste 0 921.7 3.2 66
2019-03-06 20:00:00 5.1 11 Sudoeste 28 Sudoeste 0 920.9 3.3 64
2019-03-06 19:00:00 6.8 22 Sudoeste 44 Oeste 0 919.3 3.3 60
2019-03-06 18:00:00 7.6 24 Oeste 44 Oeste 0 918.5 3.2 62
2019-03-06 17:00:00 7.9 24 Oeste 62 Sudoeste 3.6 917.6 1.5 73
2019-03-06 16:00:00 10.1 46 Sudoeste 81 Sudoeste 0 916 -0.8 61
2019-03-06 15:00:00 8.8 58 Sudoeste 83 Sudoeste 2.3 915.3 -2.3 65
2019-03-06 14:00:00 9.7 58 Sudoeste 80 Sur 0.5 916.1 -0.4 67
2019-03-06 13:00:00 9.7 46 Sur 69 Sur 2.2 916.8 -0.3 69
2019-03-06 12:00:00 10.4 44 Sudoeste 83 Sur 0 917.6 -0.2 65
2019-03-06 11:00:00 12.4 49 Sur 73 Sur 0 916.5 -1.5 42
2019-03-06 10:00:00 10.9 40 Sudoeste 57 Sur 0 917.1 -1.5 46
2019-03-06 09:00:00 9.4 34 Sudoeste 56 Sudoeste 0 917.8 -0.3 57
2019-03-06 08:00:00 9.2 22 Sudoeste 43 Sudoeste 0 918 -0.1 59
2019-03-06 07:00:00 10 25 Sudoeste 40 Sudoeste 0 918.6 -0.5 58
2019-03-06 06:00:00 10.5 21 Sudoeste 37 Sudoeste 0 918.1 -1.7 57
2019-03-06 05:00:00 11.3 23 Sudoeste 40 Sudoeste 0 918.1 -1.9 52
2019-03-06 04:00:00 11.7 5 Sur 31 Sur 0 919.1 -1.9 54
2019-03-06 03:00:00 11 10 Este 17 Este 0 919.8 -2.2 61
2019-03-06 02:00:00 10.8 11 Nordeste 16 Nordeste 0 920 -2.8 65
2019-03-06 01:00:00 10.7 5 Este 15 Sudeste 0 921 -2.2 69
2019-03-06 00:00:00 10.6 9 Sudeste 17 Sudeste 0 922 -1.3 69
2019-03-05 23:00:00 10.8 11 Sudeste 22 Sur 0 922.8 -0.7 68
2019-03-05 22:00:00 10.6 19 Sur 24 Sur 0 923.2 -0.4 67
2019-03-05 21:00:00 10.7 14 Sudeste 23 Sur 0 923.3 -0.2 64
2019-03-05 20:00:00 11.4 15 Sur 23 Sur 0 923.5 -0.5 59
2019-03-05 19:00:00 12.1 15 Sur 28 Sur 0 923.6 -1.1 51
2019-03-05 18:00:00 13.9 19 Sudoeste 31 Sur 0 923.5 -1.6 44
2019-03-05 17:00:00 15.4 21 Sudoeste 35 Sudoeste 0 924 -1.5 39
2019-03-05 16:00:00 15.5 19 Sudoeste 37 Sudoeste 0 924.7 -1.8 37
2019-03-05 15:00:00 15.5 24 Sudoeste 36 Sudoeste 0 925.1 -1.8 37
2019-03-05 14:00:00 13.7 21 Sudoeste 33 Sur 0 925.5 -1.2 44
2019-03-05 13:00:00 14.5 21 Sudoeste 32 Sudoeste 0 926.5 -0.5 41
2019-03-05 12:00:00 12 17 Sudoeste 25 Sudoeste 0 926.9 0.1 49
2019-03-05 11:00:00 11.2 9 Oeste 25 Oeste 0 926.7 0.8 50
2019-03-05 10:00:00 11.6 16 Oeste 36 Oeste 0 927 1.4 51
2019-03-05 09:00:00 9 6 Oeste 13 Oeste 0 926.8 1.1 71
2019-03-05 08:00:00 9.1 8 Noroeste 18 Oeste 0 925.9 0.5 71
2019-03-05 07:00:00 9.5 11 Sudoeste 21 Sudoeste 0 925.6 -0.6 67
2019-03-05 06:00:00 9.3 15 Sudoeste 27 Sudoeste 0 925.7 -0.9 67
2019-03-05 05:00:00 9.2 18 Sudoeste 25 Sudoeste 0 925.4 -1.6 64
2019-03-05 04:00:00 8.7 10 Sudoeste 21 Sudoeste 0 926.2 -1.2 66
2019-03-05 03:00:00 8.7 6 Sudoeste 15 Sudoeste 0 926.6 -1.1 68
2019-03-05 02:00:00 9 5 Sudoeste 12 Oeste 0 927 -0.8 67
2019-03-05 01:00:00 9.4 5 Sudoeste 16 Sudoeste 0 927.4 -0.2 67
2019-03-05 00:00:00 9.4 13 Sudoeste 31 Sudoeste 0 927.7 0 70
2019-03-04 23:00:00 9.1 11 Sur 15 Sur 0 927.8 0.5 69
2019-03-04 22:00:00 8.7 6 Sudoeste 11 Oeste 0 927.6 0.5 70
2019-03-04 21:00:00 11.2 6 Oeste 11 Oeste 0 927.7 0.8 63
2019-03-04 20:00:00 11.1 6 Oeste 12 Oeste 0 927.3 0 60
2019-03-04 19:00:00 12.6 10 Oeste 19 Oeste 0 927.1 -0.1 55
2019-03-04 18:00:00 14 12 Oeste 31 Oeste 0 926.9 -0.7 51
2019-03-04 17:00:00 15.6 16 Oeste 29 Oeste 0 927.3 -0.8 45
2019-03-04 16:00:00 16.2 15 Oeste 28 Oeste 0 927.2 -1.7 43
2019-03-04 15:00:00 16.5 13 Oeste 28 Oeste 0 927.6 -1.1 39
2019-03-04 14:00:00 16.4 21 Oeste 33 Sudoeste 0 928.1 -1 34
2019-03-04 13:00:00 17.8 20 Sudoeste 37 Oeste 0 928.9 -0.3 34
2019-03-04 12:00:00 15.7 23 Sudoeste 37 Sudoeste 0 928.7 -0.5 33
2019-03-04 11:00:00 15.1 17 Oeste 27 Oeste 0 929.1 0.3 37
2019-03-04 10:00:00 12.2 4 Noroeste 16 Oeste 0 929.2 0.7 47
2019-03-04 09:00:00 8.4 0 Calma 6 Norte 0 929.2 0.8 59
2019-03-04 08:00:00 5.9 3 Este 6 Sudeste 0 928.8 0.8 64
2019-03-04 07:00:00 5.2 3 Nordeste 9 Oeste 0 928.5 -0.1 65
2019-03-04 06:00:00 6.9 8 Sudoeste 10 Sudoeste 0 928.4 -1.3 64
2019-03-04 05:00:00 6.7 6 Sudoeste 10 Sur 0 928 -1.8 63
2019-03-04 04:00:00 8.4 3 Sur 8 Sudoeste 0 928.6 -0.7 56
2019-03-04 03:00:00 8.6 5 Sudoeste 8 Sudoeste 0 929.7 0.6 55
2019-03-04 02:00:00 8.8 5 Sudoeste 12 Sudoeste 0 929.8 0.2 50
2019-03-04 01:00:00 10.4 12 Oeste 19 Oeste 0 929.3 -0.1 39
2019-03-04 00:00:00 11.4 7 Sudoeste 12 Sudoeste 0 929.1 0.1 34
2019-03-03 23:00:00 10.5 8 Sudoeste 13 Sur 0 929.6 0 35
2019-03-03 22:00:00 10.9 7 Sur 10 Sudoeste 0 929.4 0.5 33
2019-03-03 21:00:00 11.2 8 Sudoeste 10 Sudoeste 0 929 0.3 32
2019-03-03 20:00:00 11.7 7 Sudoeste 13 Sur 0 929.6 0.7 29
2019-03-03 19:00:00 14.7 10 Sudoeste 20 Sudoeste 0 928.9 -0.8 23
2019-03-03 18:00:00 19 12 Sudoeste 23 Sudoeste 0 928.7 -1.2 22
2019-03-03 17:00:00 19.7 17 Sudoeste 23 Sudoeste 0 928.9 -2.3 21
2019-03-03 16:00:00 20.7 16 Sur 24 Sur 0 929.7 -2.1 21
2019-03-03 15:00:00 20.8 11 Sudoeste 23 Sur 0 929.9 -2.1 21
2019-03-03 14:00:00 20.8 13 Sudoeste 22 Sudoeste 0 931.2 -1 22
2019-03-03 13:00:00 20.6 5 Oeste 18 Oeste 0 931.8 -0.9 24
2019-03-03 12:00:00 19.3 3 Sudeste 24 Sur 0 932 -0.2 28
2019-03-03 11:00:00 17.8 5 Sur 11 Sur 0 932.2 0.1 32
2019-03-03 10:00:00 11.5 4 Nordeste 6 Nordeste 0 932.7 0.9 51
2019-03-03 09:00:00 5.7 4 Nordeste 9 Nordeste 0 932.2 0.5 62
2019-03-03 08:00:00 5.1 0 Calma 4 Sudeste 0 932.1 0.9 63
2019-03-03 07:00:00 4.9 2 Sudeste 5 Este 0 931.8 -0.1 63
2019-03-03 06:00:00 3.8 6 Sur 8 Nordeste 0 931.7 -0.7 64
2019-03-03 05:00:00 5 4 Norte 7 Norte 0 931.2 -1.3 56
2019-03-03 04:00:00 6.6 0 Calma 6 Sudoeste 0 931.9 -0.5 55
2019-03-03 03:00:00 6.4 5 Sudoeste 5 Sudoeste 0 932.4 -0.8 52
2019-03-03 02:00:00 7.6 0 Calma 6 Norte 0 932.5 -0.6 47
2019-03-03 01:00:00 8.2 2 Sudoeste 6 Sudoeste 0 932.4 0.1 43
2019-03-03 00:00:00 8.4 3 Sudoeste 5 Oeste 0 933.2 1.2 42
2019-03-02 23:00:00 8.7 4 Sudoeste 9 Noroeste 0 933.1 0.8 41
2019-03-02 22:00:00 10.4 0 Calma 4 Noroeste 0 932.3 0.6 38
2019-03-02 21:00:00 12 4 Sur 7 Sur 0 932 0.4 34
2019-03-02 20:00:00 12.2 5 Sudoeste 7 Noroeste 0 932.3 0.9 32
2019-03-02 19:00:00 16.1 4 Noroeste 14 Norte 0 931.7 0.3 25
2019-03-02 18:00:00 17.4 9 Norte 17 Noroeste 0 931.6 -0.1 25
2019-03-02 17:00:00 18 10 Norte 18 Norte 0 931.4 -0.4 26
2019-03-02 16:00:00 17.6 11 Norte 23 Norte 0 931.4 -1.1 27
2019-03-02 15:00:00 17.8 12 Norte 23 Norte 0 931.7 -1 26
2019-03-02 14:00:00 17.4 8 Norte 20 Nordeste 0 931.8 -1 28
2019-03-02 13:00:00 16 6 Este 12 Este 0 932.5 0.1 32
2019-03-02 12:00:00 14 4 Nordeste 10 Norte 0 932.7 0.2 37
2019-03-02 11:00:00 13.6 2 Nordeste 8 Norte 0 932.8 0.8 40
2019-03-02 10:00:00 9.5 3 Norte 5 Norte 0 932.4 0.7 56
2019-03-02 09:00:00 6.9 0 Calma 4 Nordeste 0 932.5 1.1 60
2019-03-02 08:00:00 5.6 0 Calma 6 Norte 0 932 0.9 64
2019-03-02 07:00:00 5.5 3 Noroeste 7 Noroeste 0 931.7 0.5 62
2019-03-02 06:00:00 6.1 5 Noroeste 8 Oeste 0 931.4 0.1 62
2019-03-02 05:00:00 6.7 3 Oeste 7 Oeste 0 931.1 -0.5 58
2019-03-02 04:00:00 7.1 0 Calma 5 Noroeste 0 931.2 -0.3 57
2019-03-02 03:00:00 7.2 0 Calma 7 Sudoeste 0 931.3 -0.2 56
2019-03-02 02:00:00 6.8 5 Sudoeste 12 Oeste 0 931.6 0.3 56
2019-03-02 01:00:00 8.6 5 Sudoeste 6 Sudoeste 0 931.5 0.4 51
2019-03-02 00:00:00 8.9 3 Oeste 13 Oeste 0 931.5 0.6 49
2019-03-01 23:00:00 10.1 10 Oeste 15 Oeste 0 931.3 0.8 47
2019-03-01 22:00:00 10.3 8 Noroeste 14 Oeste 0 931.1 1.5 46
2019-03-01 21:00:00 11.3 9 Oeste 15 Oeste 0 930.9 1.6 44
2019-03-01 20:00:00 12.4 10 Oeste 14 Oeste 0 930.5 0.8 42
2019-03-01 19:00:00 13.1 10 Sudoeste 15 Sudoeste 0 929.6 0.1 40
2019-03-01 18:00:00 15.9 13 Sudoeste 21 Sudoeste 0 929.3 -0.5 31
2019-03-01 17:00:00 17.2 13 Sudoeste 21 Sudoeste 0 929.7 -1.1 28
2019-03-01 16:00:00 18 5 Noroeste 16 Sudoeste 0 929.5 -1.6 27
2019-03-01 15:00:00 17.7 5 Noroeste 15 Noroeste 0 929.8 -1.9 27
2019-03-01 14:00:00 18.4 5 Oeste 14 Oeste 0 930.8 -0.9 28
2019-03-01 13:00:00 18.1 4 Sudeste 17 Sur 0 931.1 -0.9 29
2019-03-01 12:00:00 16.6 3 Nordeste 13 Este 0 931.7 -0.1 30
2019-03-01 11:00:00 15.7 5 Nordeste 10 Este 0 931.7 -0.1 35
2019-03-01 10:00:00 11.2 3 Nordeste 5 Nordeste 0 932 0.2 44
2019-03-01 09:00:00 8.7 0 Calma 4 Oeste 0 931.8 0 49
2019-03-01 08:00:00 5.2 3 Sudoeste 7 Sudoeste 0 931.8 0.3 56
2019-03-01 07:00:00 3.8 4 Sudoeste 9 Noroeste 0 931.8 0.1 54
2019-03-01 06:00:00 5.4 5 Sudoeste 8 Nordeste 0 931.8 -0.3 52
2019-03-01 05:00:00 5.8 6 Nordeste 9 Nordeste 0 931.5 -0.8 48
2019-03-01 04:00:00 6.9 2 Sur 3 Sur 0 931.7 -1.2 47
2019-03-01 03:00:00 8 3 Norte 5 Nordeste 0 932.1 -1.2 44
2019-03-01 02:00:00 8.1 3 Sudoeste 8 Sudoeste 0 932.3 -1.1 44
2019-03-01 01:00:00 8.9 7 Oeste 8 Oeste 0 932.9 -0.9 41
2019-03-01 00:00:00 9.2 4 Sudoeste 6 Oeste 0 933.3 0.1 37
2019-02-28 23:00:00 10.8 5 Oeste 7 Sudoeste 0 933.4 0.2 35
2019-02-28 22:00:00 10.8 4 Sudoeste 5 Sudoeste 0 933.8 1.3 35
2019-02-28 21:00:00 12.9 5 Sudoeste 6 Sudoeste 0 933.2 0.5 32
2019-02-28 20:00:00 14.3 0 Calma 13 Norte 0 933.2 0.6 29
2019-02-28 19:00:00 15.8 7 Norte 13 Noroeste 0 932.5 -0.7 28
2019-02-28 18:00:00 18.3 7 Norte 13 Norte 0 932.7 -1 24
2019-02-28 17:00:00 20 5 Noroeste 13 Oeste 0 932.6 -1.8 23
2019-02-28 16:00:00 19.8 6 Oeste 15 Noroeste 0 933.2 -1.7 24
2019-02-28 15:00:00 19.5 4 Noroeste 15 Sudoeste 0 933.7 -1.7 25
2019-02-28 14:00:00 18.8 3 Noroeste 13 Oeste 0 934.4 -1.3 26
2019-02-28 13:00:00 17.6 3 Oeste 12 Noroeste 0 934.9 -0.7 28
2019-02-28 12:00:00 16.4 2 Noroeste 9 Noroeste 0 935.4 0.1 32
2019-02-28 11:00:00 13.3 4 Norte 8 Noroeste 0 935.7 0.6 36
2019-02-28 10:00:00 10.6 0 Calma 3 Nordeste 0 935.6 0.9 43
2019-02-28 09:00:00 7.2 0 Calma 5 Oeste 0 935.3 0.8 48
2019-02-28 08:00:00 4.7 2 Sudoeste 5 Oeste 0 935.1 0.8 48
2019-02-28 07:00:00 4.9 3 Sudoeste 4 Sudoeste 0 934.7 0 48
2019-02-28 06:00:00 4.1 4 Sudoeste 6 Sudoeste 0 934.5 -0.6 48
2019-02-28 05:00:00 5.2 0 Calma -- -- 0 934.3 -0.7 46
2019-02-28 04:00:00 6.1 0 Calma 2 Noroeste 0 934.7 -0.7 43
2019-02-28 03:00:00 6.5 0 Calma 6 Oeste 0 935.1 0.1 43
2019-02-28 02:00:00 7.7 3 Oeste 8 Oeste 0 935 -0.3 38
2019-02-28 01:00:00 8 4 Oeste 7 Oeste 0 935.4 0.8 38
2019-02-28 00:00:00 9.2 6 Sudoeste 12 Oeste 0 935 0.9 35
2019-02-27 23:00:00 10.8 8 Oeste 14 Oeste 0 935.3 1 33
2019-02-27 22:00:00 9.6 8 Oeste 11 Oeste 0 934.6 1.2 32
2019-02-27 21:00:00 11.7 6 Sudoeste 11 Oeste 0 934.1 1.1 29
2019-02-27 20:00:00 14.1 6 Noroeste 15 Oeste 0 934.3 1.2 25
2019-02-27 19:00:00 15.2 6 Oeste 13 Oeste 0 933.4 0.4 23
2019-02-27 18:00:00 19.4 0 Calma 15 Oeste 0 933 -0.4 20
2019-02-27 17:00:00 20 6 Oeste 17 Oeste 0 933.1 -1 20
2019-02-27 16:00:00 19.4 8 Noroeste 14 Oeste 0 933 -2 18
2019-02-27 15:00:00 18.8 5 Nordeste 16 Este 0 933.4 -1.9 18
2019-02-27 14:00:00 18.1 6 Nordeste 14 Norte 0 934.1 -1.3 20
2019-02-27 13:00:00 16.9 6 Este 13 Este 0 935 -0.3 22
2019-02-27 12:00:00 16.1 3 Nordeste 12 Este 0 935.3 0.2 25
2019-02-27 11:00:00 14.5 2 Sudeste 8 Oeste 0 935.4 0.8 30
2019-02-27 10:00:00 9.5 3 Oeste 7 Noroeste 0 935.3 0.8 41
2019-02-27 09:00:00 4.9 5 Nordeste 9 Este 0 935.1 0.6 42
2019-02-27 08:00:00 4.1 0 Calma 5 Sur 0 934.6 0.4 44
2019-02-27 07:00:00 3.2 3 Sur 9 Nordeste 0 934.5 -0.4 45
2019-02-27 06:00:00 3.6 8 Nordeste 10 Nordeste 0 934.5 -0.3 41
2019-02-27 05:00:00 3.9 7 Nordeste 10 Nordeste 0 934.2 -0.9 39
2019-02-27 04:00:00 5.8 0 Calma 12 Sudeste 0 934.9 -0.3 35
2019-02-27 03:00:00 6.7 9 Sudeste 12 Sudeste 0 934.8 -0.5 33
2019-02-27 02:00:00 7.5 4 Sudeste 13 Sudeste 0 935.1 -0.1 32
2019-02-27 01:00:00 8.3 9 Este 16 Este 0 935.2 0.4 30
2019-02-27 00:00:00 8.2 6 Este 17 Sudeste 0 935.3 0.6 30
2019-02-26 23:00:00 9.3 13 Sudeste 20 Sudeste 0 935.2 0.3 27
2019-02-26 22:00:00 10.4 15 Sudeste 19 Sudeste 0 934.8 0.8 26
2019-02-26 21:00:00 11.2 12 Sudeste 22 Sudeste 0 934.7 1.5 25
2019-02-26 20:00:00 13.3 15 Este 20 Este 0 934.9 1.5 23
2019-02-26 19:00:00 14.4 12 Sur 14 Sur 0 934 0.5 24
2019-02-26 18:00:00 18.1 9 Sur 17 Sur 0 933.2 -0.7 19
2019-02-26 17:00:00 19.6 3 Sur 19 Sudeste 0 933.4 -0.9 18
2019-02-26 16:00:00 19.6 5 Sudeste 19 Este 0 933.5 -2 18
2019-02-26 15:00:00 19.6 6 Sudeste 24 Este 0 933.9 -1.4 19
2019-02-26 14:00:00 18.7 18 Sudeste 31 Sudeste 0 934.3 -1 19
2019-02-26 13:00:00 18.5 14 Sudeste 33 Este 0 935.5 0.2 21
2019-02-26 12:00:00 17.3 12 Sudeste 24 Sudeste 0 935.3 0 23
2019-02-26 11:00:00 15 12 Este 19 Este 0 935.3 0.6 26
2019-02-26 10:00:00 9.3 4 Nordeste 6 Nordeste 0 935.3 0.9 38
2019-02-26 09:00:00 6.3 3 Nordeste 4 Nordeste 0 935.3 1 44
2019-02-26 08:00:00 2.9 4 Sur 5 Sudoeste 0 934.7 0.2 50
2019-02-26 07:00:00 3.5 3 Sudoeste 5 Norte 0 934.4 0.1 45
2019-02-26 06:00:00 4.6 3 Norte 7 Nordeste 0 934.3 -0.6 41
2019-02-26 05:00:00 4 5 Nordeste 8 Nordeste 0 934.5 -0.5 42
2019-02-26 04:00:00 5.6 5 Nordeste 8 Este 0 934.3 -1.1 40
2019-02-26 03:00:00 6.1 5 Nordeste 9 Nordeste 0 934.9 -0.2 41
2019-02-26 02:00:00 8.6 9 Sudeste 13 Sur 0 935 -0.8 36
2019-02-26 01:00:00 6.5 0 Calma 7 Este 0 935.4 -0.2 43
2019-02-26 00:00:00 8.1 4 Este 9 Este 0 935.1 -0.5 38
2019-02-25 23:00:00 9.2 4 Sur 7 Sudoeste 0 935.8 0.9 36
2019-02-25 22:00:00 10.7 3 Sudoeste 6 Sudoeste 0 935.6 1 34
2019-02-25 21:00:00 11.7 2 Sur 9 Oeste 0 935.6 1.1 32
2019-02-25 20:00:00 12.9 2 Sudoeste 10 Norte 0 934.9 0.4 29
2019-02-25 19:00:00 16.1 6 Norte 11 Norte 0 934.6 -0.3 22
2019-02-25 18:00:00 18.5 6 Norte 11 Norte 0 934.5 -0.9 20
2019-02-25 17:00:00 18.5 5 Nordeste 13 Norte 0 934.5 -1.5 20
2019-02-25 16:00:00 19.4 3 Norte 14 Este 0 934.9 -1.9 19
2019-02-25 15:00:00 19.7 2 Sudeste 10 Norte 0 935.4 -1.9 20
2019-02-25 14:00:00 18.2 3 Este 14 Nordeste 0 936 -1.3 23
2019-02-25 13:00:00 17.2 7 Este 15 Este 0 936.8 -0.7 25
2019-02-25 12:00:00 15.7 7 Este 15 Sudeste 0 937.3 0.2 29
2019-02-25 11:00:00 13.7 2 Este 8 Sudeste 0 937.3 0.8 37
2019-02-25 10:00:00 8.6 2 Nordeste 7 Norte 0 937.5 0.8 48
2019-02-25 09:00:00 3.9 6 Nordeste 10 Nordeste 0 937.1 0.4 55
2019-02-25 08:00:00 4.2 4 Norte 6 Nordeste 0 936.5 -0.3 56
2019-02-25 07:00:00 4 5 Nordeste 6 Nordeste 0 936.7 -0.2 55
2019-02-25 06:00:00 4 0 Calma 3 Sudoeste 0 936.7 -0.4 55
2019-02-25 05:00:00 4 3 Nordeste 7 Nordeste 0 936.8 -0.4 52
2019-02-25 04:00:00 5.2 3 Nordeste 5 Sur 0 936.9 0.2 50
2019-02-25 03:00:00 3.6 5 Sudoeste 8 Noroeste 0 937.1 0.3 53
2019-02-25 02:00:00 6.5 2 Norte 7 Nordeste 0 937.2 0.3 45
2019-02-25 01:00:00 7 4 Este 12 Este 0 936.7 -0.2 42
2019-02-25 00:00:00 9.2 7 Este 13 Este 0 936.8 0.6 37
2019-02-24 23:00:00 10 3 Sudeste 14 Sudeste 0 936.9 0.8 35
2019-02-24 22:00:00 9.2 4 Este 11 Este 0 936.9 1.6 37
2019-02-24 21:00:00 11.5 5 Sudoeste 6 Sudoeste 0 936.2 1.5 33
2019-02-24 20:00:00 13.2 2 Oeste 6 Norte 0 936.1 1.3 27
2019-02-24 19:00:00 16.6 3 Norte 10 Norte 0 935.3 0.7 22
2019-02-24 18:00:00 18.6 7 Norte 14 Norte 0 934.7 -0.1 20
2019-02-24 17:00:00 18.7 5 Norte 14 Nordeste 0 934.8 -0.6 20
2019-02-24 16:00:00 18.9 8 Norte 16 Norte 0 934.6 -0.9 21
2019-02-24 15:00:00 18.8 6 Norte 14 Nordeste 0 934.8 -1.4 21
2019-02-24 14:00:00 18.4 3 Norte 9 Este 0 935.4 -0.5 22
2019-02-24 13:00:00 17 4 Nordeste 14 Este 0 935.5 0.1 23
2019-02-24 12:00:00 15.2 7 Este 12 Este 0 936.2 1.1 32
2019-02-24 11:00:00 11.4 3 Norte 6 Norte 0 935.9 1.5 39
2019-02-24 10:00:00 8.7 0 Calma 5 Sudoeste 0 935.4 1.5 52
2019-02-24 09:00:00 4.5 0 Calma 9 Sudoeste 0 935.1 1.3 59
2019-02-24 08:00:00 3.2 7 Oeste 9 Oeste 0 934.4 0.8 57
2019-02-24 07:00:00 3.9 0 Calma 7 Oeste 0 933.9 -0.1 51
2019-02-24 06:00:00 5.9 4 Oeste 6 Sudoeste 0 933.8 -0.2 46
2019-02-24 05:00:00 4.5 0 Calma 3 Sudeste 0 933.6 -0.9 51
2019-02-24 04:00:00 4.8 0 Calma 4 Norte 0 934 -0.5 51
2019-02-24 03:00:00 6.3 0 Calma -- -- 0 934 -0.6 48
2019-02-24 02:00:00 6.7 0 Calma 5 Este 0 934.5 0 45
2019-02-24 01:00:00 6.3 5 Nordeste 6 Nordeste 0 934.5 0 44
2019-02-24 00:00:00 7.9 3 Oeste 8 Oeste 0 934.6 0.7 42
2019-02-23 23:00:00 7 6 Sudoeste 10 Sudoeste 0 934.5 0.7 39
2019-02-23 22:00:00 9.7 3 Sudoeste 5 Sudoeste 0 934.5 0.8 32
2019-02-23 21:00:00 9.2 3 Sudoeste 13 Oeste 0 933.9 0.5 31
2019-02-23 20:00:00 9.4 9 Sudoeste 11 Oeste 0 933.8 0.3 28
2019-02-23 19:00:00 13.2 7 Noroeste 10 Oeste 0 933.7 -0.1 21
2019-02-23 18:00:00 16.2 7 Noroeste 13 Norte 0 933.4 -1.2 19
2019-02-23 17:00:00 17.5 8 Noroeste 14 Sudoeste 0 933.5 -2 18
2019-02-23 16:00:00 18.1 6 Oeste 15 Oeste 0 933.8 -2.2 18
2019-02-23 15:00:00 18.4 8 Oeste 19 Sudoeste 0 934.6 -2.3 19
2019-02-23 14:00:00 17.3 7 Noroeste 15 Noroeste 0 935.5 -1.5 22
2019-02-23 13:00:00 16.5 5 Noroeste 18 Norte 0 936 -0.8 23
2019-02-23 12:00:00 14.8 9 Norte 18 Noroeste 0 936.9 0.1 25
2019-02-23 11:00:00 14.1 3 Oeste 9 Oeste 0 937 0.5 29
2019-02-23 10:00:00 8.8 0 Calma 5 Noroeste 0 936.8 0.7 36
2019-02-23 09:00:00 4 2 Sudoeste 5 Oeste 0 936.8 0.9 42
2019-02-23 08:00:00 4.5 0 Calma 4 Noroeste 0 936.5 0.7 38
2019-02-23 07:00:00 5.3 3 Sudoeste 5 Sudoeste 0 936.1 0 36
2019-02-23 06:00:00 4.4 3 Sudoeste 7 Sudoeste 0 935.9 -0.4 39
2019-02-23 05:00:00 3.9 3 Noroeste 5 Oeste 0 935.8 -0.6 37
2019-02-23 04:00:00 4.3 4 Sudoeste 7 Sudoeste 0 936.1 -0.8 37
2019-02-23 03:00:00 5.3 0 Calma 3 Nordeste 0 936.3 -0.4 33
2019-02-23 02:00:00 6 0 Calma 4 Nordeste 0 936.4 -0.4 32
2019-02-23 01:00:00 7.1 2 Sur 5 Sur 0 936.9 0.6 29
2019-02-23 00:00:00 8 0 Calma 5 Sudoeste 0 936.7 0 28
2019-02-22 23:00:00 8.7 0 Calma 6 Sur 0 936.8 0.7 27
2019-02-22 22:00:00 9.8 4 Sur 6 Sur 0 936.3 0.4 24
2019-02-22 21:00:00 10.6 4 Sudoeste 6 Sudoeste 0 936.7 1.4 23
2019-02-22 20:00:00 11.8 5 Sudoeste 13 Oeste 0 936.1 0.8 21
2019-02-22 19:00:00 15.6 10 Oeste 14 Oeste 0 935.9 0.6 19
2019-02-22 18:00:00 18.2 6 Noroeste 11 Noroeste 0 935.3 -0.2 17
2019-02-22 17:00:00 18.7 3 Noroeste 15 Oeste 0 935.3 -0.6 15
2019-02-22 16:00:00 18.7 4 Norte 12 Norte 0 935.3 -1.4 13
2019-02-22 15:00:00 18.7 7 Este 14 Este 0 935.5 -1.2 14
2019-02-22 14:00:00 18.2 0 Calma 14 Sur 0 935.9 -0.9 16
2019-02-22 13:00:00 16.9 4 Nordeste 11 Sur 0 936.7 -0.6 20
2019-02-22 12:00:00 15.8 5 Este 10 Nordeste 0 936.7 -0.7 25
2019-02-22 11:00:00 13.5 3 Nordeste 7 Este 0 936.8 0 32
2019-02-22 10:00:00 8.3 0 Calma 5 Nordeste 0 937.3 0.7 43
2019-02-22 09:00:00 3.9 6 Nordeste 8 Nordeste 0 937.4 0.5 48
2019-02-22 08:00:00 3.1 0 Calma 8 Nordeste 0 936.8 0.3 49
2019-02-22 07:00:00 3.2 5 Nordeste 9 Este 0 936.6 0 47
2019-02-22 06:00:00 2.7 8 Nordeste 10 Nordeste 0 936.9 0.2 46
2019-02-22 05:00:00 2.2 8 Nordeste 11 Nordeste 0 936.5 -0.6 45
2019-02-22 04:00:00 3.3 0 Calma 5 Nordeste 0 936.6 -0.2 39
2019-02-22 03:00:00 4.4 5 Nordeste 7 Nordeste 0 936.7 0.1 37
2019-02-22 02:00:00 4.5 0 Calma 10 Nordeste 0 937.1 1 36
2019-02-22 01:00:00 4.1 8 Nordeste 11 Nordeste 0 936.8 1.1 35
2019-02-22 00:00:00 5.3 6 Nordeste 8 Nordeste 0 936.6 1 32
2019-02-21 23:00:00 6.5 3 Norte 7 Norte 0 936.1 1.6 30
2019-02-21 22:00:00 8.8 0 Calma 4 Nordeste 0 935.7 2 26
2019-02-21 21:00:00 9.3 3 Nordeste 8 Este 0 935.6 2.5 23
2019-02-21 20:00:00 10.9 0 Calma 8 Sur 0 934.5 1.3 22
2019-02-21 19:00:00 11.3 7 Sur 13 Sudeste 0 933.7 0.3 20
2019-02-21 18:00:00 15.5 9 Sudeste 15 Sudeste 0 933.1 0.3 14
2019-02-21 17:00:00 17 8 Sudeste 16 Sur 0 933.2 0.2 12
2019-02-21 16:00:00 17 8 Sur 19 Sur 0 933.4 -0.1 12
2019-02-21 15:00:00 17.3 9 Este 17 Nordeste 0 932.8 -0.9 17
2019-02-21 14:00:00 16 6 Este 16 Este 0 933 -0.3 20
2019-02-21 13:00:00 14.8 4 Nordeste 15 Nordeste 0 933.5 0.4 24
2019-02-21 12:00:00 14.8 0 Calma 10 Nordeste 0 933.7 0.8 27
2019-02-21 11:00:00 11.9 3 Nordeste 6 Nordeste 0 933.3 0.8 36
2019-02-21 10:00:00 7.5 3 Nordeste 7 Nordeste 0 933.1 1.2 51
2019-02-21 09:00:00 3.7 5 Nordeste 7 Nordeste 0 932.9 0.9 61
2019-02-21 08:00:00 2.8 0 Calma 6 Este 0 932.5 1 65
2019-02-21 07:00:00 3 4 Nordeste 10 Nordeste 0 931.9 0 61
2019-02-21 06:00:00 2.9 6 Nordeste 8 Nordeste 0 932 0.2 58
2019-02-21 05:00:00 2.9 0 Calma 5 Sudoeste 0 931.5 -0.3 59
2019-02-21 04:00:00 3.1 6 Nordeste 8 Este 0 931.9 0.1 55
2019-02-21 03:00:00 2.9 4 Nordeste 11 Este 0 931.8 0.2 52
2019-02-21 02:00:00 4 9 Este 12 Este 0 931.8 0.2 47
2019-02-21 01:00:00 5.4 6 Este 9 Este 0 931.8 0.2 45
2019-02-21 00:00:00 6.4 2 Este 4 Este 0 931.6 0.9 45
2019-02-20 23:00:00 7.5 2 Sudoeste 5 Sudoeste 0 931.6 1.6 44
2019-02-20 22:00:00 6.8 0 Calma 5 Noroeste 0 931.6 2.1 46
2019-02-20 21:00:00 8.4 4 Sudoeste 6 Sudoeste 0 930.7 1.5 42
2019-02-20 20:00:00 9.5 0 Calma 5 Norte 0 930 1 36
2019-02-20 19:00:00 12.3 0 Calma 8 Norte 0 929.5 0 29
2019-02-20 18:00:00 14.2 5 Norte 17 Nordeste 0 929.2 -0.2 26
2019-02-20 17:00:00 15.1 6 Norte 18 Norte 0 929 -0.5 26
2019-02-20 16:00:00 14.5 6 Nordeste 15 Nordeste 0 929.5 -0.5 27
2019-02-20 15:00:00 14.3 8 Nordeste 19 Nordeste 0 929.4 -0.7 29
2019-02-20 14:00:00 14.4 4 Nordeste 13 Nordeste 0 929.5 -0.6 29
2019-02-20 13:00:00 13.5 4 Nordeste 14 Este 0 930 0.2 33
2019-02-20 12:00:00 12.7 4 Este 9 Nordeste 0 930.1 0.8 39
2019-02-20 11:00:00 9.6 5 Nordeste 6 Nordeste 0 930.1 1.4 46
2019-02-20 10:00:00 7.7 0 Calma 3 Sur 0 929.8 1.8 59
2019-02-20 09:00:00 2.8 2 Nordeste 5 Nordeste 0 929.3 1.4 66
2019-02-20 08:00:00 2.5 4 Nordeste 5 Nordeste 0 928.7 1 64
2019-02-20 07:00:00 3 0 Calma 3 Este 0 928 0 65
2019-02-20 06:00:00 2.9 0 Calma 5 Sudoeste 0 927.9 0 68
2019-02-20 05:00:00 3.4 2 Sur 4 Norte 0 927.7 -0.2 63
2019-02-20 04:00:00 4.2 0 Calma 5 Norte 0 928 -0.2 61
2019-02-20 03:00:00 3.5 4 Nordeste 6 Nordeste 0 927.9 0.3 61
2019-02-20 02:00:00 3.9 3 Sur 4 Sudoeste 0 927.9 0.1 60
2019-02-20 01:00:00 5.1 2 Norte 4 Norte 0 928.2 1.1 55
2019-02-20 00:00:00 5.5 0 Calma 6 Oeste 0 927.6 0.7 55